Dura Bulk — 3ETF7 — position and weather

sailwx.info

Track history (hours):
 
Tides and Currents Weather Stations Pressure Air Temp Water Temp Dewpoint Dewpoint Depression Visibility Wind Speed Wind Dir Waves Ship Positions

Dura Bulk

Last reported at 2017-Nov-17 08:18 UTC. Time now 2017-Nov-18 06:56 UTC.
Position N 28°58' W 013°32'.

Length 89 m; draft 6.1 m.

Type: Cargo ship. MMSI: 370545000.

Date/timePositionNaut miles runAvg speedWind from/ knotsBaromVisibWave heightAir tempDewpointWater temp
2017-Nov-17 08:18N 28°58' W 013°32'1 0.3
2017-Nov-17 06:38N 28°57' W 013°32'3 1.4
2017-Nov-17 04:37N 28°54' W 013°33'29 5.6
2017-Nov-16 23:31N 28°30' W 013°50'  
2017-Nov-13 22:59N 27°32' W 014°59'8 9.8
2017-Nov-13 22:11N 27°35' W 015°08'4 9.7
2017-Nov-13 21:45N 27°36' W 015°12'20 0.5
2017-Nov-12 04:58N 27°29' W 014°50'4 9.2
2017-Nov-12 04:30N 27°28' W 014°46'5 9.2
2017-Nov-12 04:00N 27°27' W 014°41'4 8.9
2017-Nov-12 03:30N 27°25' W 014°36'4 8.8
2017-Nov-12 03:00N 27°24' W 014°32'4 8.6
2017-Nov-12 02:30N 27°22' W 014°27'4 8.8
2017-Nov-12 02:00N 27°21' W 014°22'4 8.8
2017-Nov-12 01:30N 27°20' W 014°18'4 8.8
2017-Nov-12 01:00N 27°19' W 014°13'4 8.7
2017-Nov-12 00:30N 27°17' W 014°08'11 8.4
2017-Nov-11 23:11N 27°14' W 013°57'2 8.2
2017-Nov-11 23:00N 27°13' W 013°55'16 8.4
2017-Nov-11 21:06N 27°08' W 013°38'11 1.0
2017-Nov-11 09:56N 27°05' W 013°26'1 2.9
2017-Nov-11 09:29N 27°05' W 013°27'0 0.3
2017-Nov-11 08:54N 27°06' W 013°27'1 3.4
2017-Nov-11 08:30N 27°05' W 013°28'1 0.2
2017-Nov-10 23:45N 27°05' W 013°30'0 0.0
2017-Nov-10 23:03N 27°05' W 013°30'0 0.0
2017-Nov-10 22:44N 27°05' W 013°30'0 0.0
2017-Nov-10 22:29N 27°05' W 013°30'0 0.0
2017-Nov-10 20:17N 27°05' W 013°30'0 0.0
2017-Nov-10 18:47N 27°05' W 013°30'0 0.0
2017-Nov-10 18:20N 27°05' W 013°30'0 0.0
2017-Nov-10 17:05N 27°05' W 013°30'0 0.0
2017-Nov-10 16:57N 27°05' W 013°30'0 0.0
2017-Nov-10 16:01N 27°05' W 013°30'0 0.0
2017-Nov-10 15:31N 27°05' W 013°30'0 0.1
2017-Nov-10 15:13N 27°05' W 013°30'0 0.0
2017-Nov-10 14:49N 27°05' W 013°30'0 0.0
2017-Nov-10 14:19N 27°05' W 013°30'0 0.0
2017-Nov-10 10:19N 27°05' W 013°30'0 0.5
2017-Nov-10 09:48N 27°05' W 013°30'3 8.4
2017-Nov-10 09:26N 27°07' W 013°33'510.1
2017-Nov-10 08:58N 27°09' W 013°37'5 9.9
2017-Nov-10 08:30N 27°12' W 013°41'5 9.6
2017-Nov-10 08:00N 27°15' W 013°46'6 9.6
2017-Nov-10 07:25N 27°17' W 013°51'4 9.5
2017-Nov-10 07:00N 27°19' W 013°55'5 9.6
2017-Nov-10 06:30N 27°21' W 014°00'5 9.3
2017-Nov-10 06:00N 27°23' W 014°05'5 9.1
2017-Nov-10 05:30N 27°25' W 014°10'8 9.1
2017-Nov-10 04:38N 27°30' W 014°17'30 8.7
2017-Nov-10 01:12N 27°46' W 014°45'2 9.5
2017-Nov-10 00:58N 27°47' W 014°48'4 9.6
2017-Nov-10 00:30N 27°50' W 014°52'510.0
2017-Nov-09 23:59N 27°52' W 014°57'510.3
2017-Nov-09 23:30N 27°55' W 015°02'510.3
2017-Nov-09 23:00N 27°58' W 015°07'510.4
2017-Nov-09 22:30N 28°00' W 015°12'510.2
2017-Nov-09 22:00N 28°03' W 015°16'510.3
2017-Nov-09 21:30N 28°06' W 015°21'4 7.3
2017-Nov-09 21:00N 28°08' W 015°25'0 0.9
2017-Nov-09 20:30N 28°08' W 015°24'0 0.0
2017-Nov-09 20:00N 28°08' W 015°24'0 0.0
2017-Nov-09 19:30N 28°08' W 015°24'0 0.0
2017-Nov-09 19:00N 28°08' W 015°24'0 0.0
2017-Nov-09 18:30N 28°08' W 015°24'0 0.0
2017-Nov-09 17:58N 28°08' W 015°24'0 0.0
2017-Nov-09 17:28N 28°08' W 015°24'0 0.0
2017-Nov-09 16:58N 28°08' W 015°24'0 0.0
2017-Nov-09 16:28N 28°08' W 015°24'0 0.0
2017-Nov-09 15:58N 28°08' W 015°24'0 0.0
2017-Nov-09 15:28N 28°08' W 015°24'0 0.0
2017-Nov-09 14:58N 28°08' W 015°24'0 0.0
2017-Nov-09 14:28N 28°08' W 015°24'0 0.0
2017-Nov-09 13:58N 28°08' W 015°24'0 0.0
2017-Nov-09 13:19N 28°08' W 015°24'0 0.0
2017-Nov-09 12:49N 28°08' W 015°24'0 0.0
2017-Nov-09 12:19N 28°08' W 015°24'0 0.0
2017-Nov-09 12:01N 28°08' W 015°24'0 0.0
2017-Nov-09 11:31N 28°08' W 015°24'0 0.0
2017-Nov-09 11:01N 28°08' W 015°24'0 0.0
2017-Nov-09 10:21N 28°08' W 015°24'0 0.0
2017-Nov-09 10:00N 28°08' W 015°24'0 0.0
2017-Nov-09 09:30N 28°08' W 015°24'0 0.0
2017-Nov-09 09:00N 28°08' W 015°24'0 0.0
2017-Nov-09 08:21N 28°08' W 015°24'0 0.0
2017-Nov-09 07:51N 28°08' W 015°24'0 0.0
2017-Nov-09 07:21N 28°08' W 015°24'0 0.0
2017-Nov-09 06:51N 28°08' W 015°24'0 0.0
2017-Nov-09 06:24N 28°08' W 015°24'0 0.0
2017-Nov-09 05:54N 28°08' W 015°24'0 0.0
2017-Nov-09 05:24N 28°08' W 015°24'0 0.0
2017-Nov-09 04:54N 28°08' W 015°24'0 0.0
2017-Nov-09 04:24N 28°08' W 015°24'0 0.0
2017-Nov-09 03:54N 28°08' W 015°24'0 0.0
2017-Nov-09 03:24N 28°08' W 015°24'0 0.0
2017-Nov-09 02:54N 28°08' W 015°24'0 0.0
2017-Nov-09 02:24N 28°08' W 015°24'0 0.0
2017-Nov-09 01:57N 28°08' W 015°24'0 0.0
2017-Nov-09 01:27N 28°08' W 015°24'0 0.0
2017-Nov-09 00:57N 28°08' W 015°24'0 0.0
2017-Nov-09 00:27N 28°08' W 015°24'0 0.0
2017-Nov-08 23:57N 28°08' W 015°24'0 0.0
2017-Nov-08 23:27N 28°08' W 015°24'0 0.0
2017-Nov-08 22:57N 28°08' W 015°24'0 0.0
2017-Nov-08 22:27N 28°08' W 015°24'0 0.0
2017-Nov-08 21:57N 28°08' W 015°24'0 0.0
2017-Nov-08 21:30N 28°08' W 015°24'0 0.0
2017-Nov-08 21:00N 28°08' W 015°24'0 0.0
2017-Nov-08 20:30N 28°08' W 015°24'0 0.0
2017-Nov-08 20:00N 28°08' W 015°24'0 0.0
2017-Nov-08 19:30N 28°08' W 015°24'0 0.0
2017-Nov-08 19:00N 28°08' W 015°24'0 0.0
2017-Nov-08 18:30N 28°08' W 015°24'0 0.0
2017-Nov-08 18:00N 28°08' W 015°24'1 1.6
2017-Nov-08 17:30N 28°08' W 015°25'3 6.4
2017-Nov-08 17:00N 28°06' W 015°21'4 7.9
2017-Nov-08 16:30N 28°05' W 015°17'4 7.7
2017-Nov-08 16:00N 28°04' W 015°13'4 7.6
2017-Nov-08 15:30N 28°02' W 015°09'4 7.8
2017-Nov-08 15:00N 28°01' W 015°05'4 8.1
2017-Nov-08 14:30N 27°59' W 015°01'4 8.0
2017-Nov-08 14:00N 27°58' W 014°56'4 7.8
2017-Nov-08 13:30N 27°57' W 014°52'4 7.9
2017-Nov-08 13:00N 27°55' W 014°48'4 8.0
2017-Nov-08 12:30N 27°54' W 014°44'4 7.8
2017-Nov-08 12:00N 27°52' W 014°40'48 8.3
2017-Nov-08 06:15N 27°24' W 013°56'3 8.5
2017-Nov-08 05:55N 27°23' W 013°53'3 8.5
2017-Nov-08 05:30N 27°21' W 013°50'7 8.1
2017-Nov-08 04:37N 27°16' W 013°44'1 8.3
2017-Nov-08 04:30N 27°16' W 013°43'18 1.0
2017-Nov-07 10:52N 27°06' W 013°26'  
Track history (hours):
 
Tides and Currents Weather Stations Pressure Air Temp Water Temp Dewpoint Dewpoint Depression Visibility Wind Speed Wind Dir Waves Ship Positions

Dura Bulk

Last reported at 2017-Nov-17 08:18 UTC. Time now 2017-Nov-18 06:56 UTC.
Position N 28°58' W 013°32'.

Length 89 m; draft 6.1 m.

Type: Cargo ship. MMSI: 370545000.

Date/timePositionNaut miles runAvg speedWind from/ knotsBaromVisibWave heightAir tempDewpointWater temp
2017-Nov-17 08:18N 28°58' W 013°32'1 0.3
2017-Nov-17 06:38N 28°57' W 013°32'3 1.4
2017-Nov-17 04:37N 28°54' W 013°33'29 5.6
2017-Nov-16 23:31N 28°30' W 013°50'  
2017-Nov-13 22:59N 27°32' W 014°59'8 9.8
2017-Nov-13 22:11N 27°35' W 015°08'4 9.7
2017-Nov-13 21:45N 27°36' W 015°12'20 0.5
2017-Nov-12 04:58N 27°29' W 014°50'4 9.2
2017-Nov-12 04:30N 27°28' W 014°46'5 9.2
2017-Nov-12 04:00N 27°27' W 014°41'4 8.9
2017-Nov-12 03:30N 27°25' W 014°36'4 8.8
2017-Nov-12 03:00N 27°24' W 014°32'4 8.6
2017-Nov-12 02:30N 27°22' W 014°27'4 8.8
2017-Nov-12 02:00N 27°21' W 014°22'4 8.8
2017-Nov-12 01:30N 27°20' W 014°18'4 8.8
2017-Nov-12 01:00N 27°19' W 014°13'4 8.7
2017-Nov-12 00:30N 27°17' W 014°08'11 8.4
2017-Nov-11 23:11N 27°14' W 013°57'2 8.2
2017-Nov-11 23:00N 27°13' W 013°55'16 8.4
2017-Nov-11 21:06N 27°08' W 013°38'11 1.0
2017-Nov-11 09:56N 27°05' W 013°26'1 2.9
2017-Nov-11 09:29N 27°05' W 013°27'0 0.3
2017-Nov-11 08:54N 27°06' W 013°27'1 3.4
2017-Nov-11 08:30N 27°05' W 013°28'1 0.2
2017-Nov-10 23:45N 27°05' W 013°30'0 0.0
2017-Nov-10 23:03N 27°05' W 013°30'0 0.0
2017-Nov-10 22:44N 27°05' W 013°30'0 0.0
2017-Nov-10 22:29N 27°05' W 013°30'0 0.0
2017-Nov-10 20:17N 27°05' W 013°30'0 0.0
2017-Nov-10 18:47N 27°05' W 013°30'0 0.0
2017-Nov-10 18:20N 27°05' W 013°30'0 0.0
2017-Nov-10 17:05N 27°05' W 013°30'0 0.0
2017-Nov-10 16:57N 27°05' W 013°30'0 0.0
2017-Nov-10 16:01N 27°05' W 013°30'0 0.0
2017-Nov-10 15:31N 27°05' W 013°30'0 0.1
2017-Nov-10 15:13N 27°05' W 013°30'0 0.0
2017-Nov-10 14:49N 27°05' W 013°30'0 0.0
2017-Nov-10 14:19N 27°05' W 013°30'0 0.0
2017-Nov-10 10:19N 27°05' W 013°30'0 0.5
2017-Nov-10 09:48N 27°05' W 013°30'3 8.4
2017-Nov-10 09:26N 27°07' W 013°33'510.1
2017-Nov-10 08:58N 27°09' W 013°37'5 9.9
2017-Nov-10 08:30N 27°12' W 013°41'5 9.6
2017-Nov-10 08:00N 27°15' W 013°46'6 9.6
2017-Nov-10 07:25N 27°17' W 013°51'4 9.5
2017-Nov-10 07:00N 27°19' W 013°55'5 9.6
2017-Nov-10 06:30N 27°21' W 014°00'5 9.3
2017-Nov-10 06:00N 27°23' W 014°05'5 9.1
2017-Nov-10 05:30N 27°25' W 014°10'8 9.1
2017-Nov-10 04:38N 27°30' W 014°17'30 8.7
2017-Nov-10 01:12N 27°46' W 014°45'2 9.5
2017-Nov-10 00:58N 27°47' W 014°48'4 9.6
2017-Nov-10 00:30N 27°50' W 014°52'510.0
2017-Nov-09 23:59N 27°52' W 014°57'510.3
2017-Nov-09 23:30N 27°55' W 015°02'510.3
2017-Nov-09 23:00N 27°58' W 015°07'510.4
2017-Nov-09 22:30N 28°00' W 015°12'510.2
2017-Nov-09 22:00N 28°03' W 015°16'510.3
2017-Nov-09 21:30N 28°06' W 015°21'4 7.3
2017-Nov-09 21:00N 28°08' W 015°25'0 0.9
2017-Nov-09 20:30N 28°08' W 015°24'0 0.0
2017-Nov-09 20:00N 28°08' W 015°24'0 0.0
2017-Nov-09 19:30N 28°08' W 015°24'0 0.0
2017-Nov-09 19:00N 28°08' W 015°24'0 0.0
2017-Nov-09 18:30N 28°08' W 015°24'0 0.0
2017-Nov-09 17:58N 28°08' W 015°24'0 0.0
2017-Nov-09 17:28N 28°08' W 015°24'0 0.0
2017-Nov-09 16:58N 28°08' W 015°24'0 0.0
2017-Nov-09 16:28N 28°08' W 015°24'0 0.0
2017-Nov-09 15:58N 28°08' W 015°24'0 0.0
2017-Nov-09 15:28N 28°08' W 015°24'0 0.0
2017-Nov-09 14:58N 28°08' W 015°24'0 0.0
2017-Nov-09 14:28N 28°08' W 015°24'0 0.0
2017-Nov-09 13:58N 28°08' W 015°24'0 0.0
2017-Nov-09 13:19N 28°08' W 015°24'0 0.0
2017-Nov-09 12:49N 28°08' W 015°24'0 0.0
2017-Nov-09 12:19N 28°08' W 015°24'0 0.0
2017-Nov-09 12:01N 28°08' W 015°24'0 0.0
2017-Nov-09 11:31N 28°08' W 015°24'0 0.0
2017-Nov-09 11:01N 28°08' W 015°24'0 0.0
2017-Nov-09 10:21N 28°08' W 015°24'0 0.0
2017-Nov-09 10:00N 28°08' W 015°24'0 0.0
2017-Nov-09 09:30N 28°08' W 015°24'0 0.0
2017-Nov-09 09:00N 28°08' W 015°24'0 0.0
2017-Nov-09 08:21N 28°08' W 015°24'0 0.0
2017-Nov-09 07:51N 28°08' W 015°24'0 0.0
2017-Nov-09 07:21N 28°08' W 015°24'0 0.0
2017-Nov-09 06:51N 28°08' W 015°24'0 0.0
2017-Nov-09 06:24N 28°08' W 015°24'0 0.0
2017-Nov-09 05:54N 28°08' W 015°24'0 0.0
2017-Nov-09 05:24N 28°08' W 015°24'0 0.0
2017-Nov-09 04:54N 28°08' W 015°24'0 0.0
2017-Nov-09 04:24N 28°08' W 015°24'0 0.0
2017-Nov-09 03:54N 28°08' W 015°24'0 0.0
2017-Nov-09 03:24N 28°08' W 015°24'0 0.0
2017-Nov-09 02:54N 28°08' W 015°24'0 0.0
2017-Nov-09 02:24N 28°08' W 015°24'0 0.0
2017-Nov-09 01:57N 28°08' W 015°24'0 0.0
2017-Nov-09 01:27N 28°08' W 015°24'0 0.0
2017-Nov-09 00:57N 28°08' W 015°24'0 0.0
2017-Nov-09 00:27N 28°08' W 015°24'0 0.0
2017-Nov-08 23:57N 28°08' W 015°24'0 0.0
2017-Nov-08 23:27N 28°08' W 015°24'0 0.0
2017-Nov-08 22:57N 28°08' W 015°24'0 0.0
2017-Nov-08 22:27N 28°08' W 015°24'0 0.0
2017-Nov-08 21:57N 28°08' W 015°24'0 0.0
2017-Nov-08 21:30N 28°08' W 015°24'0 0.0
2017-Nov-08 21:00N 28°08' W 015°24'0 0.0
2017-Nov-08 20:30N 28°08' W 015°24'0 0.0
2017-Nov-08 20:00N 28°08' W 015°24'0 0.0
2017-Nov-08 19:30N 28°08' W 015°24'0 0.0
2017-Nov-08 19:00N 28°08' W 015°24'0 0.0
2017-Nov-08 18:30N 28°08' W 015°24'0 0.0
2017-Nov-08 18:00N 28°08' W 015°24'1 1.6
2017-Nov-08 17:30N 28°08' W 015°25'3 6.4
2017-Nov-08 17:00N 28°06' W 015°21'4 7.9
2017-Nov-08 16:30N 28°05' W 015°17'4 7.7
2017-Nov-08 16:00N 28°04' W 015°13'4 7.6
2017-Nov-08 15:30N 28°02' W 015°09'4 7.8
2017-Nov-08 15:00N 28°01' W 015°05'4 8.1
2017-Nov-08 14:30N 27°59' W 015°01'4 8.0
2017-Nov-08 14:00N 27°58' W 014°56'4 7.8
2017-Nov-08 13:30N 27°57' W 014°52'4 7.9
2017-Nov-08 13:00N 27°55' W 014°48'4 8.0
2017-Nov-08 12:30N 27°54' W 014°44'4 7.8
2017-Nov-08 12:00N 27°52' W 014°40'48 8.3
2017-Nov-08 06:15N 27°24' W 013°56'3 8.5
2017-Nov-08 05:55N 27°23' W 013°53'3 8.5
2017-Nov-08 05:30N 27°21' W 013°50'7 8.1
2017-Nov-08 04:37N 27°16' W 013°44'1 8.3
2017-Nov-08 04:30N 27°16' W 013°43'18 1.0
2017-Nov-07 10:52N 27°06' W 013°26'  

Dump ship's entire track history